Time;durP1;ratioP1;P1;durP2;ratioP2;P2;SDS_P1;SDS_P2;PMS_P1;PMS_P2;Temp;Humidity;BMP_temperature;BMP_pressure;BME280_temperature;BME280_humidity;BME280_pressure;Samples;Min_cycle;Max_cycle;Signal;HPM_P1;HPM_P2
2021/05/21 00:01:14;;;;;;;9.13;7.57;;;;;;;15.87;63.85;98370.38;5052261;28;20116;-46
2021/05/21 00:03:40;;;;;;;14.80;9.55;;;;;;;15.81;63.79;98354.16;5052192;28;20129;-44
2021/05/21 00:06:07;;;;;;;12.07;8.82;;;;;;;15.83;63.94;98361.03;5052706;28;20037;-43
2021/05/21 00:08:32;;;;;;;9.95;8.27;;;;;;;15.87;63.88;98378.50;5052390;28;20048;-44
2021/05/21 00:10:58;;;;;;;11.00;9.18;;;;;;;15.84;63.89;98351.06;5051986;28;20398;-47
2021/05/21 00:13:23;;;;;;;11.85;8.50;;;;;;;15.88;63.97;98373.94;5051814;28;20127;-51
2021/05/21 00:15:49;;;;;;;11.20;8.65;;;;;;;15.95;63.78;98365.94;5052226;28;20482;-48
2021/05/21 00:18:14;;;;;;;10.13;7.70;;;;;;;15.96;63.41;98383.81;5052001;28;20040;-45
2021/05/21 00:20:40;;;;;;;9.15;8.23;;;;;;;15.65;63.45;98318.31;5051920;28;20028;-42
2021/05/21 00:23:05;;;;;;;9.15;7.70;;;;;;;16.00;63.38;98376.97;5051683;28;20044;-45
2021/05/21 00:25:31;;;;;;;8.23;6.80;;;;;;;15.89;63.16;98365.66;5051789;28;20028;-49
2021/05/21 00:27:56;;;;;;;7.68;6.88;;;;;;;15.90;63.34;98361.94;5052068;28;20047;-47
2021/05/21 00:30:22;;;;;;;6.93;6.22;;;;;;;15.95;63.41;98374.84;5050383;28;20033;-44
2021/05/21 00:32:47;;;;;;;8.23;7.35;;;;;;;15.99;63.18;98375.31;5049242;28;20045;-51
2021/05/21 00:35:13;;;;;;;7.28;6.53;;;;;;;15.99;63.07;98380.72;5048736;28;20059;-47
2021/05/21 00:37:38;;;;;;;8.80;6.95;;;;;;;15.97;63.18;98367.41;5050381;28;20040;-48
2021/05/21 00:40:05;;;;;;;6.50;5.80;;;;;;;15.97;62.98;98371.97;5051711;28;20463;-48
2021/05/21 00:42:30;;;;;;;7.70;5.70;;;;;;;15.77;62.95;98342.91;5051752;28;20064;-49
2021/05/21 00:44:57;;;;;;;8.80;5.45;;;;;;;15.96;63.23;98384.63;5051383;28;20037;-46
2021/05/21 00:47:23;;;;;;;7.28;5.13;;;;;;;15.91;63.16;98374.44;5052014;28;20037;-45
2021/05/21 00:49:49;;;;;;;5.80;5.20;;;;;;;15.89;63.21;98381.84;5051416;28;20045;-50
2021/05/21 00:52:17;;;;;;;6.80;4.90;;;;;;;15.84;63.25;98386.16;5051114;28;20103;-46
2021/05/21 00:54:46;;;;;;;4.75;3.00;;;;;;;15.50;62.16;98342.66;5050883;28;20044;-47
2021/05/21 00:57:12;;;;;;;1.98;1.73;;;;;;;15.45;61.79;98359.41;5051272;28;20036;-46
2021/05/21 00:59:38;;;;;;;3.38;1.98;;;;;;;15.62;61.39;98407.72;5050603;28;20082;-46
2021/05/21 01:02:06;;;;;;;2.20;1.55;;;;;;;15.49;61.26;98405.72;5050983;28;20390;-45
2021/05/21 01:04:31;;;;;;;2.53;1.40;;;;;;;15.15;61.88;98382.94;5050974;28;20059;-47
2021/05/21 01:06:57;;;;;;;1.95;1.70;;;;;;;15.17;62.34;98402.44;5050805;28;20466;-47
2021/05/21 01:09:23;;;;;;;6.28;1.63;;;;;;;15.14;62.08;98422.53;5051047;28;20061;-45
2021/05/21 01:11:49;;;;;;;1.52;1.40;;;;;;;14.64;62.15;98352.22;5050109;28;20039;-50
2021/05/21 01:14:14;;;;;;;3.35;1.88;;;;;;;15.00;62.21;98423.38;5049911;28;20032;-47
2021/05/21 01:16:39;;;;;;;1.70;1.60;;;;;;;14.99;61.75;98419.88;5050801;28;20068;-47
2021/05/21 01:19:05;;;;;;;2.08;1.42;;;;;;;14.75;61.52;98397.59;5050535;28;20040;-48
2021/05/21 01:21:32;;;;;;;1.75;1.45;;;;;;;14.67;61.42;98389.53;5050856;28;20037;-47
2021/05/21 01:23:58;;;;;;;1.50;1.40;;;;;;;14.60;61.65;98402.09;5050420;28;20373;-50
2021/05/21 01:26:25;;;;;;;2.20;1.27;;;;;;;14.17;61.79;98349.69;5050541;28;20176;-55
2021/05/21 01:28:52;;;;;;;2.53;1.20;;;;;;;14.38;61.79;98375.06;5050921;28;20112;-52
2021/05/21 01:31:19;;;;;;;1.35;1.20;;;;;;;14.40;61.46;98388.34;5054775;28;20085;-47
2021/05/21 01:33:44;;;;;;;2.60;1.38;;;;;;;14.56;61.15;98419.66;5066323;28;20036;-47
2021/05/21 01:36:10;;;;;;;2.83;1.30;;;;;;;14.54;60.97;98427.06;5046761;28;20407;-46
2021/05/21 01:38:37;;;;;;;3.28;1.15;;;;;;;14.50;60.83;98415.81;5050127;28;20401;-49
2021/05/21 01:41:03;;;;;;;1.67;1.20;;;;;;;14.41;60.77;98416.94;5049688;28;20057;-47
2021/05/21 01:43:29;;;;;;;0.95;0.88;;;;;;;14.32;60.92;98402.72;5050404;28;20043;-44
2021/05/21 01:45:56;;;;;;;3.08;1.00;;;;;;;14.09;60.56;98382.06;5048633;28;20480;-47
2021/05/21 01:48:22;;;;;;;2.80;1.10;;;;;;;14.40;60.53;98431.44;5062848;28;20036;-49
2021/05/21 01:50:47;;;;;;;2.85;1.02;;;;;;;14.41;60.40;98427.72;5065736;28;20033;-46
2021/05/21 01:53:13;;;;;;;3.00;1.13;;;;;;;14.40;60.59;98432.25;5067315;28;20043;-46
2021/05/21 01:55:38;;;;;;;1.45;1.00;;;;;;;14.15;60.32;98397.47;5068899;28;20093;-46
2021/05/21 01:58:04;;;;;;;3.38;0.93;;;;;;;14.08;60.22;98385.78;5067916;28;20562;-48
2021/05/21 02:00:30;;;;;;;1.13;1.05;;;;;;;14.29;60.39;98414.69;5068198;28;20413;-46
2021/05/21 02:02:55;;;;;;;1.52;1.20;;;;;;;14.32;60.15;98427.78;5063187;28;20405;-50
2021/05/21 02:05:21;;;;;;;4.10;0.90;;;;;;;14.35;60.05;98434.66;5067930;28;20033;-46
2021/05/21 02:07:47;;;;;;;1.73;0.70;;;;;;;14.46;59.74;98426.13;5067726;28;20367;-47
2021/05/21 02:10:13;;;;;;;1.48;0.82;;;;;;;14.49;59.47;98438.38;5053572;28;20041;-51
2021/05/21 02:12:44;;;;;;;1.48;1.10;;;;;;;14.60;59.36;98437.09;5048226;28;20108;-47
2021/05/21 02:15:10;;;;;;;1.08;0.98;;;;;;;14.64;58.63;98430.31;5047710;28;20041;-50
2021/05/21 02:17:36;;;;;;;2.97;0.82;;;;;;;14.93;58.08;98436.75;5046999;28;20033;-50
2021/05/21 02:20:04;;;;;;;3.28;0.70;;;;;;;15.18;57.08;98428.38;5044483;28;20049;-49
2021/05/21 02:22:31;;;;;;;1.05;0.60;;;;;;;15.43;56.23;98422.66;5045502;28;20029;-52
2021/05/21 02:24:59;;;;;;;0.65;0.40;;;;;;;15.62;55.60;98432.84;5048814;28;20127;-49
2021/05/21 02:27:25;;;;;;;1.10;0.75;;;;;;;15.70;55.36;98431.88;5049611;28;20037;-49
2021/05/21 02:29:51;;;;;;;2.60;0.73;;;;;;;15.60;55.59;98417.88;5049829;28;20110;-44
2021/05/21 02:32:16;;;;;;;1.52;0.55;;;;;;;15.33;55.48;98377.97;5049808;28;20482;-48
2021/05/21 02:34:42;;;;;;;2.45;0.80;;;;;;;15.63;55.61;98420.19;5052745;28;20036;-54
2021/05/21 02:37:08;;;;;;;2.13;0.80;;;;;;;15.59;55.60;98430.53;5064803;28;20060;-46
2021/05/21 02:39:39;;;;;;;1.13;0.80;;;;;;;15.54;55.82;98432.97;5066600;28;20106;-50
2021/05/21 02:42:05;;;;;;;1.10;1.00;;;;;;;15.10;56.33;98372.75;5069286;28;20041;-46
2021/05/21 02:44:31;;;;;;;1.25;0.70;;;;;;;15.35;56.71;98431.72;5069525;28;20090;-45
2021/05/21 02:46:57;;;;;;;6.43;1.20;;;;;;;15.27;56.49;98424.56;5069137;28;20040;-49
2021/05/21 02:49:25;;;;;;;1.75;0.98;;;;;;;15.25;57.12;98429.31;5053805;28;20477;-56
2021/05/21 02:51:52;;;;;;;4.07;0.80;;;;;;;15.22;57.13;98443.19;5045711;28;20124;-48
2021/05/21 02:54:20;;;;;;;2.15;1.10;;;;;;;15.25;57.28;98439.25;5044867;28;20447;-46
2021/05/21 02:56:46;;;;;;;1.30;1.20;;;;;;;15.14;57.50;98440.56;5046305;28;20482;-46
2021/05/21 02:59:12;;;;;;;1.10;1.02;;;;;;;15.06;57.78;98433.41;5048000;28;20029;-48
2021/05/21 03:01:38;;;;;;;2.25;1.00;;;;;;;14.98;57.99;98442.47;5052397;28;20490;-46
2021/05/21 03:04:05;;;;;;;1.27;0.93;;;;;;;14.99;58.32;98430.66;5052821;28;20494;-48
2021/05/21 03:06:31;;;;;;;1.77;1.20;;;;;;;14.91;58.33;98428.03;5058777;28;20086;-46
2021/05/21 03:08:56;;;;;;;1.38;1.08;;;;;;;14.96;58.61;98433.72;5070316;28;20028;-44
2021/05/21 03:11:22;;;;;;;2.42;1.10;;;;;;;14.92;58.59;98446.72;5071301;28;20056;-48
2021/05/21 03:13:48;;;;;;;1.27;0.90;;;;;;;14.90;58.84;98429.06;5072297;28;20029;-47
2021/05/21 03:16:13;;;;;;;1.20;1.10;;;;;;;14.93;58.98;98442.16;5072558;28;21095;-49
2021/05/21 03:18:39;;;;;;;4.38;1.00;;;;;;;14.76;59.03;98411.88;5071410;28;20033;-44
2021/05/21 03:21:05;;;;;;;3.20;1.10;;;;;;;14.75;59.16;98421.84;5064806;28;20064;-51
2021/05/21 03:23:31;;;;;;;3.03;1.20;;;;;;;14.84;59.12;98451.38;5047827;28;20075;-46
2021/05/21 03:25:57;;;;;;;2.33;1.00;;;;;;;14.80;59.20;98428.50;5048163;28;20067;-46
2021/05/21 03:28:22;;;;;;;1.55;1.00;;;;;;;14.76;59.38;98447.75;5050897;28;20037;-46
2021/05/21 03:30:48;;;;;;;2.78;1.00;;;;;;;14.68;59.76;98442.41;5052332;28;20127;-43
2021/05/21 03:33:13;;;;;;;2.35;1.00;;;;;;;14.65;59.99;98440.06;5052605;28;20491;-44
2021/05/21 03:35:39;;;;;;;1.23;1.02;;;;;;;14.68;59.92;98453.16;5052038;28;20147;-44
2021/05/21 03:38:06;;;;;;;2.13;1.02;;;;;;;14.64;60.08;98447.34;5050591;28;20029;-45
2021/05/21 03:40:34;;;;;;;2.17;1.08;;;;;;;14.68;60.24;98450.47;5050318;28;20035;-50
2021/05/21 03:42:59;;;;;;;3.00;1.00;;;;;;;14.74;59.92;98427.38;5049565;28;20057;-46
2021/05/21 03:45:25;;;;;;;3.35;0.82;;;;;;;14.68;60.00;98437.00;5052160;28;20502;-47
2021/05/21 03:47:50;;;;;;;2.88;1.00;;;;;;;14.71;60.13;98452.88;5052513;28;20405;-48
2021/05/21 03:50:19;;;;;;;1.50;0.88;;;;;;;14.61;60.52;98439.63;5052591;28;20127;-44
2021/05/21 03:52:45;;;;;;;0.98;0.90;;;;;;;14.69;60.74;98460.22;5052288;28;20258;-46
2021/05/21 03:55:11;;;;;;;1.58;0.80;;;;;;;14.61;61.27;98445.00;5051607;28;20063;-45
2021/05/21 03:57:40;;;;;;;0.80;0.80;;;;;;;14.56;61.43;98443.88;5052424;28;20033;-43
2021/05/21 04:00:08;;;;;;;1.15;0.63;;;;;;;14.59;61.62;98451.59;5052228;28;20033;-49
2021/05/21 04:02:34;;;;;;;1.27;0.82;;;;;;;14.52;61.59;98438.03;5051734;28;20084;-49
2021/05/21 04:04:59;;;;;;;1.02;0.80;;;;;;;14.62;61.39;98443.13;5052383;28;20072;-44
2021/05/21 04:07:25;;;;;;;1.67;0.70;;;;;;;14.68;61.18;98472.03;5052169;28;20493;-44
2021/05/21 04:09:50;;;;;;;2.53;0.80;;;;;;;14.73;61.11;98463.44;5052616;28;20083;-47
2021/05/21 04:12:16;;;;;;;0.73;0.70;;;;;;;14.65;60.92;98453.53;5051472;28;20056;-49
2021/05/21 04:14:41;;;;;;;4.15;0.80;;;;;;;14.73;61.37;98445.44;5051862;28;20036;-48
2021/05/21 04:17:07;;;;;;;2.10;0.75;;;;;;;14.81;60.84;98465.22;5051806;28;20036;-46
2021/05/21 04:19:33;;;;;;;4.68;0.90;;;;;;;14.82;60.71;98464.19;5051547;28;20028;-44
2021/05/21 04:21:58;;;;;;;1.42;0.80;;;;;;;14.77;60.62;98435.09;5051312;28;20458;-51
2021/05/21 04:24:24;;;;;;;0.93;0.80;;;;;;;14.92;60.49;98464.75;5051583;28;20078;-46
2021/05/21 04:26:49;;;;;;;0.93;0.70;;;;;;;14.90;60.67;98467.63;5051085;28;20043;-46
2021/05/21 04:29:15;;;;;;;0.80;0.80;;;;;;;14.95;60.55;98483.25;5049385;28;20037;-52
2021/05/21 04:31:40;;;;;;;1.75;0.70;;;;;;;14.94;60.59;98478.84;5048881;28;20083;-46
2021/05/21 04:34:06;;;;;;;0.82;0.82;;;;;;;14.97;60.49;98467.72;5051028;28;20117;-48
2021/05/21 04:36:31;;;;;;;1.00;0.85;;;;;;;14.59;60.53;98419.28;5051032;28;20037;-45
2021/05/21 04:38:57;;;;;;;1.20;0.80;;;;;;;14.75;60.47;98435.31;5051238;28;20048;-51
2021/05/21 04:41:22;;;;;;;2.97;0.75;;;;;;;15.05;60.19;98473.03;5050707;28;20152;-49
2021/05/21 04:43:48;;;;;;;3.92;0.90;;;;;;;15.19;60.12;98483.97;5050226;28;20068;-45
2021/05/21 04:46:14;;;;;;;1.80;0.90;;;;;;;15.25;60.01;98482.38;5050492;28;20077;-49
2021/05/21 04:48:40;;;;;;;1.85;1.00;;;;;;;15.23;60.20;98485.28;5050394;28;20139;-47
2021/05/21 04:51:05;;;;;;;1.00;1.00;;;;;;;15.17;60.04;98472.53;5049871;28;20025;-46
2021/05/21 04:53:31;;;;;;;2.55;1.00;;;;;;;15.21;60.13;98476.56;5050144;28;20184;-46
2021/05/21 04:55:57;;;;;;;2.83;0.90;;;;;;;15.13;60.36;98468.53;5049573;28;20351;-49
2021/05/21 04:58:22;;;;;;;4.15;0.90;;;;;;;15.19;59.76;98465.09;5050146;28;20033;-46
2021/05/21 05:00:47;;;;;;;1.27;0.80;;;;;;;15.30;59.47;98475.41;5049751;28;20025;-46
2021/05/21 05:03:18;;;;;;;1.55;0.90;;;;;;;15.14;59.37;98436.03;5049754;28;20546;-47
2021/05/21 05:05:45;;;;;;;1.23;0.75;;;;;;;15.41;59.58;98489.44;5048984;28;20036;-48
2021/05/21 05:08:14;;;;;;;1.73;1.00;;;;;;;15.47;59.59;98494.09;5050010;28;20040;-44
2021/05/21 05:10:39;;;;;;;2.72;0.80;;;;;;;15.40;59.65;98507.50;5049738;28;20037;-47
2021/05/21 05:13:05;;;;;;;1.58;0.95;;;;;;;15.26;59.67;98467.88;5049566;28;20044;-44
2021/05/21 05:15:33;;;;;;;2.63;0.88;;;;;;;15.34;60.08;98505.56;5049484;28;20087;-45
2021/05/21 05:18:01;;;;;;;1.85;0.90;;;;;;;15.29;60.36;98508.81;5049341;28;20082;-49
2021/05/21 05:20:27;;;;;;;2.28;1.02;;;;;;;15.18;60.58;98502.03;5049279;28;20513;-49
2021/05/21 05:22:53;;;;;;;1.65;1.08;;;;;;;15.25;61.03;98509.34;5049061;28;20131;-46
2021/05/21 05:25:19;;;;;;;1.77;0.80;;;;;;;15.14;60.89;98508.81;5049498;28;20407;-45
2021/05/21 05:27:45;;;;;;;1.92;0.90;;;;;;;15.21;60.95;98507.03;5049947;28;20120;-44
2021/05/21 05:30:11;;;;;;;1.30;0.73;;;;;;;15.24;61.30;98523.84;5049317;28;20522;-45
2021/05/21 05:32:36;;;;;;;0.70;0.60;;;;;;;15.18;61.26;98525.44;5049172;28;20501;-46
2021/05/21 05:35:04;;;;;;;1.20;0.80;;;;;;;15.21;61.36;98531.28;5049714;28;20119;-47
2021/05/21 05:37:29;;;;;;;3.30;0.80;;;;;;;15.24;61.39;98516.63;5049536;28;20131;-47
2021/05/21 05:39:55;;;;;;;3.42;0.98;;;;;;;15.32;60.91;98535.38;5048807;28;20355;-49
2021/05/21 05:42:20;;;;;;;1.23;0.80;;;;;;;15.33;61.10;98515.50;5026349;28;663592;-43
2021/05/21 05:44:47;;;;;;;0.93;0.77;;;;;;;15.42;60.99;98528.84;5050198;28;20410;-52
2021/05/21 05:47:13;;;;;;;0.85;0.70;;;;;;;15.45;60.96;98531.22;5050140;28;20055;-45
2021/05/21 05:49:38;;;;;;;1.67;0.60;;;;;;;15.17;60.73;98475.22;5049767;28;20546;-47
2021/05/21 05:52:04;;;;;;;1.80;0.90;;;;;;;15.43;60.84;98522.44;5050231;28;20037;-50
2021/05/21 05:54:29;;;;;;;2.00;0.60;;;;;;;15.57;60.89;98523.47;5049913;28;20043;-48
2021/05/21 05:56:55;;;;;;;1.75;0.80;;;;;;;15.80;60.18;98539.50;5049725;28;20033;-48
2021/05/21 05:59:23;;;;;;;0.98;0.65;;;;;;;15.88;59.79;98531.31;5049975;28;20064;-49
2021/05/21 06:01:48;;;;;;;1.02;0.70;;;;;;;15.98;59.56;98539.13;5048659;28;20402;-47
2021/05/21 06:04:13;;;;;;;0.70;0.70;;;;;;;16.07;59.28;98539.84;5049580;28;20215;-46
2021/05/21 06:06:39;;;;;;;3.13;1.10;;;;;;;15.98;59.28;98536.41;5050046;28;20041;-49
2021/05/21 06:09:06;;;;;;;3.13;1.02;;;;;;;15.88;59.38;98516.97;5049889;28;20131;-45
2021/05/21 06:11:32;;;;;;;2.78;0.95;;;;;;;15.93;58.92;98538.88;5055302;28;20032;-45
2021/05/21 06:13:58;;;;;;;0.88;0.80;;;;;;;15.95;58.76;98523.31;5067796;28;20485;-49
2021/05/21 06:16:23;;;;;;;1.90;1.10;;;;;;;16.14;58.14;98529.94;5068057;28;20075;-49
2021/05/21 06:18:49;;;;;;;1.92;0.85;;;;;;;16.32;57.68;98547.56;5066614;28;20044;-46
2021/05/21 06:21:15;;;;;;;5.32;2.30;;;;;;;16.40;57.40;98549.31;5055714;28;20215;-48
2021/05/21 06:23:43;;;;;;;4.95;1.00;;;;;;;16.49;56.90;98567.91;5055290;28;20028;-45
2021/05/21 06:28:52;;;;;;;2.95;0.95;;;;;;;15.59;57.43;98462.91;5056999;28;20370;-49
2021/05/21 06:31:17;;;;;;;1.20;0.80;;;;;;;16.27;57.48;98571.63;5059016;28;20067;-50
2021/05/21 06:33:44;;;;;;;0.73;0.68;;;;;;;16.29;57.10;98564.16;5057437;28;20087;-49
2021/05/21 06:36:10;;;;;;;3.03;0.70;;;;;;;16.49;56.53;98570.59;5062197;28;20044;-52
2021/05/21 06:38:36;;;;;;;1.67;0.70;;;;;;;16.76;55.79;98565.44;5072279;28;20040;-46
2021/05/21 06:41:02;;;;;;;2.22;1.00;;;;;;;16.73;55.81;98548.75;5055371;28;20033;-48
2021/05/21 06:43:29;;;;;;;4.28;1.00;;;;;;;16.72;56.08;98584.94;5071457;28;20052;-47
2021/05/21 06:45:55;;;;;;;3.47;1.05;;;;;;;16.77;57.00;98563.56;5062678;28;20074;-54
2021/05/21 06:48:21;;;;;;;4.13;1.00;;;;;;;17.87;54.45;98564.88;5060432;28;20055;-49
2021/05/21 06:50:47;;;;;;;1.10;1.00;;;;;;;19.03;51.01;98554.88;5068442;28;20043;-51
2021/05/21 06:53:13;;;;;;;2.53;1.13;;;;;;;19.45;49.63;98560.03;5058869;28;20036;-55
2021/05/21 06:55:39;;;;;;;2.97;1.30;;;;;;;19.44;49.16;98554.78;5068575;28;20063;-51
2021/05/21 06:58:05;;;;;;;3.70;1.42;;;;;;;19.44;49.19;98563.78;5058235;28;20044;-51
2021/05/21 07:00:31;;;;;;;2.20;1.10;;;;;;;19.38;48.54;98550.22;5068654;28;20033;-48
2021/05/21 07:02:56;;;;;;;1.55;0.90;;;;;;;19.58;48.23;98583.59;5057415;28;20048;-51
2021/05/21 07:05:22;;;;;;;2.17;0.70;;;;;;;19.63;47.51;98572.91;5069419;28;20119;-51
2021/05/21 07:07:47;;;;;;;1.92;0.73;;;;;;;19.56;47.72;98580.25;5053053;28;20071;-48
2021/05/21 07:10:13;;;;;;;0.60;0.60;;;;;;;19.23;48.00;98592.00;5053073;28;20478;-47
2021/05/21 07:12:39;;;;;;;1.45;0.60;;;;;;;19.14;48.38;98593.25;5052974;28;20029;-52
2021/05/21 07:15:06;;;;;;;1.05;0.60;;;;;;;19.10;48.43;98597.44;5052746;28;20044;-50
2021/05/21 07:17:32;;;;;;;8.82;1.00;;;;;;;19.13;48.46;98597.03;5051392;28;20566;-50
2021/05/21 07:19:58;;;;;;;5.30;1.02;;;;;;;19.25;48.01;98600.75;5052761;28;20032;-48
2021/05/21 07:22:23;;;;;;;5.72;1.13;;;;;;;19.27;47.54;98600.56;5052648;28;20347;-47
2021/05/21 07:24:52;;;;;;;5.65;1.20;;;;;;;19.26;47.33;98607.03;5052799;28;20127;-51
2021/05/21 07:27:18;;;;;;;3.83;1.10;;;;;;;19.32;47.35;98607.03;5051174;28;20064;-50
2021/05/21 07:29:43;;;;;;;3.60;1.15;;;;;;;19.33;47.06;98592.41;5052598;28;20124;-55
2021/05/21 07:32:09;;;;;;;3.60;1.00;;;;;;;19.42;47.21;98619.31;5057554;28;20171;-52
2021/05/21 07:34:35;;;;;;;3.65;1.00;;;;;;;19.32;46.80;98619.75;5058675;28;20522;-51
2021/05/21 07:37:15;;;;;;;2.65;1.00;;;;;;;19.27;46.89;98593.22;5052316;28;20037;-52
2021/05/21 07:39:41;;;;;;;3.10;1.02;;;;;;;19.76;46.33;98614.63;5053042;28;20406;-52
2021/05/21 07:42:08;;;;;;;4.28;0.80;;;;;;;20.28;44.45;98589.38;5052530;28;20139;-50
2021/05/21 07:44:34;;;;;;;7.55;1.80;;;;;;;20.36;44.55;98629.88;5051616;28;20532;-52
2021/05/21 07:46:59;;;;;;;6.82;1.35;;;;;;;20.03;45.27;98620.03;5066502;28;20132;-50
2021/05/21 07:49:25;;;;;;;9.07;1.40;;;;;;;19.71;45.82;98619.88;5056682;28;20032;-58
2021/05/21 07:51:52;;;;;;;7.72;1.50;;;;;;;19.51;46.47;98615.31;5072785;28;20086;-49
2021/05/21 07:54:18;;;;;;;10.50;1.95;;;;;;;19.66;46.30;98623.25;5071913;28;20036;-54
2021/05/21 07:56:44;;;;;;;2.42;1.17;;;;;;;19.98;45.38;98628.81;5071317;28;20374;-49
2021/05/21 07:59:11;;;;;;;5.78;0.98;;;;;;;20.29;43.68;98615.50;5070668;28;20064;-49
2021/05/21 08:01:38;;;;;;;1.65;1.00;;;;;;;20.57;43.00;98630.59;5071562;28;20442;-49
2021/05/21 08:04:04;;;;;;;4.20;1.00;;;;;;;20.90;42.51;98629.56;5072036;28;20036;-53
2021/05/21 08:06:30;;;;;;;4.90;1.05;;;;;;;21.11;41.80;98638.41;5071973;28;20598;-49
2021/05/21 08:08:55;;;;;;;7.30;1.45;;;;;;;21.22;41.30;98624.09;5072009;28;20052;-54
2021/05/21 08:11:21;;;;;;;5.57;1.50;;;;;;;21.57;40.71;98639.88;5072210;28;20063;-51
2021/05/21 08:13:46;;;;;;;8.95;1.30;;;;;;;21.74;40.42;98612.91;5071895;28;20036;-46
2021/05/21 08:16:13;;;;;;;1.17;0.85;;;;;;;22.71;39.05;98637.69;5071752;28;20040;-49
2021/05/21 08:18:39;;;;;;;13.18;2.22;;;;;;;23.17;37.98;98632.56;5071925;28;20044;-48
2021/05/21 08:21:05;;;;;;;8.68;1.42;;;;;;;23.38;37.33;98627.59;5071731;28;20382;-52
2021/05/21 08:23:31;;;;;;;2.50;1.00;;;;;;;23.11;37.25;98622.56;5071796;28;20032;-49
2021/05/21 08:25:57;;;;;;;8.98;1.17;;;;;;;22.77;37.88;98644.94;5072070;28;20036;-54
2021/05/21 08:28:22;;;;;;;7.68;1.30;;;;;;;22.22;38.74;98673.97;5071951;28;20044;-49
2021/05/21 08:30:48;;;;;;;4.75;0.75;;;;;;;21.35;40.82;98674.88;5071807;28;20056;-51
2021/05/21 08:33:14;;;;;;;5.50;0.60;;;;;;;20.00;44.64;98658.47;5071656;28;20123;-49
2021/05/21 08:35:39;;;;;;;6.75;0.63;;;;;;;19.23;47.89;98703.22;5071335;28;20078;-54
2021/05/21 08:38:05;;;;;;;3.88;0.60;;;;;;;18.42;50.47;98686.78;5071341;28;20040;-51
2021/05/21 08:40:36;;;;;;;2.38;0.70;;;;;;;18.00;51.50;98696.78;5071188;28;20123;-51
2021/05/21 08:43:05;;;;;;;2.47;0.90;;;;;;;17.81;53.21;98718.13;5070880;28;20055;-50
2021/05/21 08:45:31;;;;;;;2.15;0.52;;;;;;;17.73;52.94;98721.84;5070433;28;20522;-50
2021/05/21 08:47:58;;;;;;;1.73;0.60;;;;;;;17.29;52.23;98656.13;5071456;28;20115;-49
2021/05/21 08:50:25;;;;;;;3.25;0.88;;;;;;;17.92;52.22;98731.13;5071505;28;20039;-46
2021/05/21 08:52:51;;;;;;;7.07;1.20;;;;;;;18.37;51.04;98710.97;5071609;28;20029;-53
2021/05/21 08:55:17;;;;;;;1.55;1.08;;;;;;;18.70;49.87;98674.97;5071050;28;20055;-52
2021/05/21 08:57:43;;;;;;;8.95;1.25;;;;;;;20.00;47.72;98715.50;5069978;28;20059;-53
2021/05/21 09:00:11;;;;;;;2.70;0.98;;;;;;;20.67;44.94;98641.84;5070927;28;20037;-52
2021/05/21 09:02:37;;;;;;;1.58;0.90;;;;;;;21.89;42.82;98707.88;5071032;28;20032;-53
2021/05/21 09:05:07;;;;;;;2.42;0.95;;;;;;;22.28;41.60;98698.66;5070835;28;20465;-50
2021/05/21 09:07:37;;;;;;;3.42;1.38;;;;;;;22.33;41.74;98717.88;5071183;28;20032;-45
2021/05/21 09:10:09;;;;;;;2.65;1.10;;;;;;;22.08;41.83;98732.44;5070927;28;20064;-51
2021/05/21 09:12:43;;;;;;;5.20;1.10;;;;;;;21.59;42.70;98726.81;5070790;28;20387;-53
2021/05/21 09:15:10;;;;;;;2.17;0.90;;;;;;;21.40;43.18;98740.38;5070359;28;20028;-48
2021/05/21 09:17:35;;;;;;;3.60;0.65;;;;;;;21.43;41.77;98725.44;5069415;28;20123;-52
2021/05/21 09:20:03;;;;;;;0.73;0.45;;;;;;;21.68;41.29;98738.25;5070251;28;20128;-48
2021/05/21 09:22:29;;;;;;;0.82;0.52;;;;;;;21.60;40.96;98745.63;5070864;28;20081;-49
2021/05/21 09:24:55;;;;;;;2.20;0.77;;;;;;;21.23;41.44;98740.91;5071289;28;20037;-53
2021/05/21 09:27:22;;;;;;;0.32;0.30;;;;;;;20.77;42.62;98750.16;5070492;28;20024;-53
2021/05/21 09:29:56;;;;;;;2.92;0.77;;;;;;;20.10;44.00;98755.81;5070534;28;20122;-46
2021/05/21 09:32:32;;;;;;;5.53;1.10;;;;;;;19.68;45.18;98761.50;5070747;28;20028;-54
2021/05/21 09:35:19;;;;;;;3.47;0.77;;;;;;;19.51;46.00;98761.91;5070413;28;20391;-53
2021/05/21 09:37:49;;;;;;;3.00;0.75;;;;;;;19.54;45.88;98763.38;5070262;28;20443;-47
2021/05/21 09:40:20;;;;;;;4.07;1.02;;;;;;;19.82;45.53;98765.88;5070132;28;20047;-46
2021/05/21 09:42:58;;;;;;;2.20;0.93;;;;;;;20.15;44.99;98780.50;5069969;28;20165;-50
2021/05/21 09:45:25;;;;;;;5.47;1.40;;;;;;;20.20;44.24;98770.63;5070308;28;20105;-58
2021/05/21 09:48:03;;;;;;;3.92;0.80;;;;;;;20.20;44.37;98778.78;5070501;28;20048;-55
2021/05/21 09:50:48;;;;;;;2.53;0.80;;;;;;;20.26;44.19;98787.16;5070112;28;20035;-52
2021/05/21 09:53:20;;;;;;;2.47;0.85;;;;;;;19.92;44.25;98788.03;5069806;28;20036;-47
2021/05/21 09:55:56;;;;;;;1.50;0.60;;;;;;;19.65;44.86;98793.44;5069984;28;20032;-53
2021/05/21 09:58:26;;;;;;;1.50;0.68;;;;;;;19.25;46.02;98812.41;5069308;28;20397;-51
2021/05/21 10:01:07;;;;;;;3.63;1.05;;;;;;;19.43;45.43;98811.81;5069830;28;20036;-47
2021/05/21 10:03:33;;;;;;;1.98;0.70;;;;;;;19.67;44.72;98800.56;5069961;28;20032;-51
2021/05/21 10:05:59;;;;;;;1.15;0.50;;;;;;;20.31;43.00;98818.06;5069857;28;20456;-51
2021/05/21 10:08:24;;;;;;;4.90;0.80;;;;;;;20.86;41.81;98802.44;5068540;28;20400;-53
2021/05/21 10:10:51;;;;;;;2.60;0.88;;;;;;;21.07;40.66;98791.25;5069988;28;20040;-49
2021/05/21 10:13:16;;;;;;;1.85;0.90;;;;;;;21.38;40.47;98816.00;5069840;28;20071;-49
2021/05/21 10:15:42;;;;;;;3.13;0.60;;;;;;;21.30;40.07;98817.06;5069895;28;20064;-49
2021/05/21 10:18:11;;;;;;;2.72;0.90;;;;;;;20.96;40.35;98826.47;5069465;28;20039;-49
2021/05/21 10:20:37;;;;;;;3.65;0.60;;;;;;;20.43;41.33;98831.84;5069916;28;20037;-54
2021/05/21 10:23:05;;;;;;;3.13;0.80;;;;;;;19.78;42.63;98841.50;5069753;28;20036;-50
2021/05/21 10:25:34;;;;;;;3.47;0.82;;;;;;;19.20;43.06;98844.75;5069922;28;20375;-53
2021/05/21 10:28:04;;;;;;;2.25;0.93;;;;;;;18.77;43.50;98852.06;5069806;28;20410;-49
2021/05/21 10:30:33;;;;;;;2.20;0.70;;;;;;;18.27;44.55;98848.66;5069944;28;20037;-52
2021/05/21 10:33:26;;;;;;;0.50;0.50;;;;;;;18.28;44.99;98862.00;5069648;28;20067;-57
2021/05/21 10:36:23;;;;;;;1.95;0.60;;;;;;;18.59;44.52;98859.91;5070237;28;20035;-55
2021/05/21 10:39:06;;;;;;;1.55;0.57;;;;;;;19.13;43.66;98858.28;5069221;28;20036;-52
2021/05/21 10:41:33;;;;;;;3.05;0.90;;;;;;;19.73;42.48;98864.88;5067779;28;20056;-49
2021/05/21 10:43:59;;;;;;;4.90;1.00;;;;;;;20.25;40.67;98867.84;5069245;28;20071;-50
2021/05/21 10:46:26;;;;;;;4.75;2.00;;;;;;;20.45;40.23;98870.53;5069163;28;20163;-49
2021/05/21 10:48:57;;;;;;;3.55;0.90;;;;;;;20.59;40.20;98873.22;5069139;28;20241;-48
2021/05/21 10:51:24;;;;;;;2.78;0.65;;;;;;;20.83;39.68;98873.63;5068765;28;20058;-56
2021/05/21 10:54:28;;;;;;;2.05;0.60;;;;;;;21.02;39.10;98875.44;5068954;28;20029;-53
2021/05/21 10:56:57;;;;;;;1.08;0.65;;;;;;;20.98;38.76;98885.09;5069381;28;20498;-50
2021/05/21 10:59:51;;;;;;;2.30;0.68;;;;;;;20.85;38.71;98894.09;5069587;28;20440;-51
2021/05/21 11:02:24;;;;;;;1.33;0.70;;;;;;;20.51;39.30;98893.31;5069088;28;20060;-49
2021/05/21 11:04:50;;;;;;;13.32;1.30;;;;;;;20.14;39.81;98892.97;5068765;28;20074;-54
2021/05/21 11:07:39;;;;;;;3.13;0.75;;;;;;;19.57;40.61;98901.41;5068894;28;20494;-48
2021/05/21 11:10:06;;;;;;;4.85;1.23;;;;;;;18.86;42.05;98912.38;5069118;28;20494;-50
2021/05/21 11:13:00;;;;;;;3.47;0.90;;;;;;;18.47;42.67;98925.50;5069564;28;20032;-53
2021/05/21 11:15:43;;;;;;;7.65;0.95;;;;;;;18.12;43.58;98936.28;5069374;28;20043;-51
2021/05/21 11:18:15;;;;;;;15.00;1.88;;;;;;;17.87;44.11;98933.09;5068977;28;20075;-53
2021/05/21 11:21:07;;;;;;;5.70;0.82;;;;;;;17.78;44.34;98938.66;5070848;28;20033;-53
2021/05/21 11:23:33;;;;;;;5.28;1.17;;;;;;;17.72;44.41;98944.00;5072770;28;20036;-50
2021/05/21 11:26:08;;;;;;;5.95;0.90;;;;;;;17.81;44.08;98945.53;5072224;28;20094;-53
2021/05/21 11:28:38;;;;;;;;;;;;;;;18.10;43.58;98957.31;5072751;28;20059;-47
2021/05/21 11:31:07;;;;;;;2.47;0.93;;;;;;;18.00;43.49;98967.59;5072521;28;19916;-48
2021/05/21 11:33:33;;;;;;;6.22;1.00;;;;;;;18.01;43.29;98963.84;5072213;28;20043;-49
2021/05/21 11:35:59;;;;;;;14.25;1.63;;;;;;;17.97;43.11;98966.13;5072152;28;20145;-51
2021/05/21 11:38:25;;;;;;;4.22;1.00;;;;;;;17.90;43.38;98976.88;5072881;28;20052;-51